<?xml version="1.0" encoding="UTF-8" standalone="no" ?>
<gpx xmlns="http://www.topografix.com/GPX/1/1" xmlns:xsi="http://www.w3.org/2001/XMLSchema-instance" xsi:schemaLocation="http://www.topografix.com/GPX/1/1 http://www.topografix.com/GPX/1/1/gpx.xsd" version="1.1" creator="VisuGPX - https://www.visugpx.com">
  <metadata>
    <name>boucles beaumont</name>
    <desc><![CDATA[boucles beaumont du périgord]]></desc>
  </metadata>
  <trk>
    <name><![CDATA[BBmt06]]></name>
    <trkseg>
      <trkpt lat="44.78105" lon="0.71826">
        <ele>141</ele>
        <time>2008-12-08T14:51:58Z</time>
      </trkpt>
      <trkpt lat="44.78105" lon="0.71813">
        <ele>157</ele>
        <time>2008-12-08T14:52:07Z</time>
      </trkpt>
      <trkpt lat="44.78115" lon="0.71788">
        <ele>168</ele>
        <time>2008-12-08T14:52:13Z</time>
      </trkpt>
      <trkpt lat="44.78123" lon="0.71763">
        <ele>174</ele>
        <time>2008-12-08T14:52:19Z</time>
      </trkpt>
      <trkpt lat="44.78133" lon="0.71735">
        <ele>177</ele>
        <time>2008-12-08T14:52:28Z</time>
      </trkpt>
      <trkpt lat="44.7814" lon="0.7171">
        <ele>178</ele>
        <time>2008-12-08T14:52:33Z</time>
      </trkpt>
      <trkpt lat="44.78148" lon="0.71685">
        <ele>176</ele>
        <time>2008-12-08T14:52:39Z</time>
      </trkpt>
      <trkpt lat="44.7815" lon="0.71658">
        <ele>174</ele>
        <time>2008-12-08T14:52:46Z</time>
      </trkpt>
      <trkpt lat="44.78155" lon="0.71633">
        <ele>171</ele>
        <time>2008-12-08T14:52:51Z</time>
      </trkpt>
      <trkpt lat="44.7816" lon="0.71603">
        <ele>171</ele>
        <time>2008-12-08T14:52:55Z</time>
      </trkpt>
      <trkpt lat="44.78165" lon="0.71578">
        <ele>171</ele>
        <time>2008-12-08T14:52:58Z</time>
      </trkpt>
      <trkpt lat="44.78173" lon="0.71548">
        <ele>171</ele>
        <time>2008-12-08T14:53:02Z</time>
      </trkpt>
      <trkpt lat="44.78183" lon="0.71518">
        <ele>173</ele>
        <time>2008-12-08T14:53:06Z</time>
      </trkpt>
      <trkpt lat="44.7819" lon="0.71493">
        <ele>175</ele>
        <time>2008-12-08T14:53:09Z</time>
      </trkpt>
      <trkpt lat="44.78198" lon="0.71463">
        <ele>175</ele>
        <time>2008-12-08T14:53:13Z</time>
      </trkpt>
      <trkpt lat="44.78205" lon="0.71435">
        <ele>174</ele>
        <time>2008-12-08T14:53:17Z</time>
      </trkpt>
      <trkpt lat="44.78213" lon="0.71408">
        <ele>173</ele>
        <time>2008-12-08T14:53:21Z</time>
      </trkpt>
      <trkpt lat="44.7822" lon="0.7138">
        <ele>171</ele>
        <time>2008-12-08T14:53:24Z</time>
      </trkpt>
      <trkpt lat="44.78225" lon="0.7135">
        <ele>168</ele>
        <time>2008-12-08T14:53:27Z</time>
      </trkpt>
      <trkpt lat="44.7823" lon="0.71325">
        <ele>165</ele>
        <time>2008-12-08T14:53:32Z</time>
      </trkpt>
      <trkpt lat="44.7823" lon="0.71298">
        <ele>163</ele>
        <time>2008-12-08T14:53:40Z</time>
      </trkpt>
      <trkpt lat="44.7822" lon="0.71275">
        <ele>165</ele>
        <time>2008-12-08T14:54:10Z</time>
      </trkpt>
      <trkpt lat="44.7822" lon="0.71245">
        <ele>162</ele>
        <time>2008-12-08T14:54:26Z</time>
      </trkpt>
      <trkpt lat="44.78213" lon="0.71213">
        <ele>160</ele>
        <time>2008-12-08T14:54:31Z</time>
      </trkpt>
      <trkpt lat="44.78208" lon="0.71185">
        <ele>158</ele>
        <time>2008-12-08T14:54:34Z</time>
      </trkpt>
      <trkpt lat="44.78203" lon="0.71155">
        <ele>156</ele>
        <time>2008-12-08T14:54:37Z</time>
      </trkpt>
      <trkpt lat="44.78195" lon="0.71128">
        <ele>156</ele>
        <time>2008-12-08T14:54:40Z</time>
      </trkpt>
      <trkpt lat="44.78175" lon="0.71128">
        <ele>153</ele>
        <time>2008-12-08T14:56:33Z</time>
      </trkpt>
      <trkpt lat="44.78155" lon="0.7114">
        <ele>152</ele>
        <time>2008-12-08T14:56:37Z</time>
      </trkpt>
      <trkpt lat="44.78135" lon="0.7115">
        <ele>152</ele>
        <time>2008-12-08T14:56:52Z</time>
      </trkpt>
      <trkpt lat="44.78118" lon="0.71163">
        <ele>152</ele>
        <time>2008-12-08T14:56:55Z</time>
      </trkpt>
      <trkpt lat="44.78093" lon="0.71178">
        <ele>152</ele>
        <time>2008-12-08T14:56:58Z</time>
      </trkpt>
      <trkpt lat="44.78075" lon="0.7119">
        <ele>152</ele>
        <time>2008-12-08T14:57:00Z</time>
      </trkpt>
      <trkpt lat="44.77884" lon="0.71274">
        <ele>163</ele>
        <time>2009-06-18T16:43:36Z</time>
      </trkpt>
      <trkpt lat="44.77825" lon="0.70906">
        <ele>154</ele>
        <time>2009-06-18T16:43:36Z</time>
      </trkpt>
      <trkpt lat="44.77836" lon="0.70882">
        <ele>153</ele>
        <time>2009-06-18T16:43:36Z</time>
      </trkpt>
      <trkpt lat="44.77848" lon="0.70862">
        <ele>152</ele>
        <time>2009-06-18T16:43:36Z</time>
      </trkpt>
      <trkpt lat="44.77837" lon="0.70837">
        <ele>150</ele>
        <time>2009-06-18T16:43:36Z</time>
      </trkpt>
      <trkpt lat="44.7783" lon="0.7081">
        <ele>150</ele>
        <time>2009-06-18T16:43:36Z</time>
      </trkpt>
      <trkpt lat="44.7782" lon="0.70789">
        <ele>149</ele>
        <time>2009-06-18T16:43:36Z</time>
      </trkpt>
      <trkpt lat="44.77809" lon="0.70766">
        <ele>148</ele>
        <time>2009-06-18T16:43:36Z</time>
      </trkpt>
      <trkpt lat="44.77802" lon="0.70741">
        <ele>147</ele>
        <time>2009-06-18T16:43:36Z</time>
      </trkpt>
      <trkpt lat="44.77793" lon="0.7072">
        <ele>145</ele>
        <time>2009-06-18T16:43:36Z</time>
      </trkpt>
      <trkpt lat="44.77774" lon="0.70712">
        <ele>145</ele>
        <time>2009-06-18T16:43:36Z</time>
      </trkpt>
      <trkpt lat="44.77754" lon="0.70708">
        <ele>145</ele>
        <time>2009-06-18T16:43:36Z</time>
      </trkpt>
      <trkpt lat="44.7774" lon="0.70716">
        <ele>145</ele>
        <time>2009-06-18T16:43:36Z</time>
      </trkpt>
      <trkpt lat="44.7772" lon="0.70708">
        <ele>145</ele>
        <time>2009-06-18T16:43:36Z</time>
      </trkpt>
      <trkpt lat="44.77701" lon="0.70696">
        <ele>144</ele>
        <time>2009-06-18T16:43:36Z</time>
      </trkpt>
      <trkpt lat="44.7769" lon="0.70455">
        <ele>127</ele>
        <time>2009-06-18T16:43:36Z</time>
      </trkpt>
    </trkseg>
  </trk>
</gpx>